Capitol Logistics 360




KABE
Lehigh Valley International Airport
Allentown, Pennsylvania
KMHT
Manchester Airport
Manchester, New Hampshire

Activity Log

Date Flight Route Aircraft Duration
09/03/2021 CPX360 HNK MUCOW ROZZE2 B738 0h 59m
08/15/2021 CPX360 HNK MUCOW ROZZE2 B752 0h 57m
04/11/2021 CPX360 HNK MUCOW ROZZE2 B752 0h 55m
04/10/2021 CPX360 HNK MUCOW ROZZE2 B752 1h 09m

Route Details

Aircraft Information
Group: Narrowbodies
Types: B738,B752
Route Data
Demand: L
Distance: 226nm
Duration: 0h 45m
Recm'd Route: HNK MUCOW ROZZE2
Origin Wx: KABE 241951Z 09009KT 10SM OVC046 19/09 A3027 RMK AO2 SLP251 T01890089
Dest. Wx: KMHT 241953Z 14012KT 10SM BKN065 BKN250 19/04 A3028 RMK AO2 SLP266 T01940044
Notes:

Financial History
Total Freight: 95,213lbs
Average Load: 23,803lbs/flt
Fuel Used: 29,415lbs
Avg. Fuel Used: 7,354lbs/flt
Fuel Expense: $17,308
Avg. Fuel Expense: $4,327
Avg. Fuel Cost: $0.53/lbs
Total Gross Income: $194,226
Pilot Pay: $506
Total Expenses: $22,238
Total Revenue: $154,171
Average Revenue: $48,556.47